KGRB/GRB METAR and TAF weather

Enter ICAO airport designator
Station Type Date Time Source
KGRB METAR 2020/09/27 02:53 UTC NOAA

KGRB 270253Z AUTO 17007KT 8SM CLR 18/17 A2952 RMK AO2 SLP993 T01830167 58010


Station Type Date Time Source
KGRB Decoded METAR 2020/09/27 02:53 UTC NOAA

AUSTIN STRAUBEL INTERNATIONAL AIRPORT , WI, United States (KGRB) 44-29N 088-08W 205M
Sep 26, 2020 - 10:53 PM EDT / 2020.09.27 0253 UTC
Wind: from the S (170 degrees) at 8 MPH (7 KT):0
Visibility: 8 mile(s):0
Sky conditions: clear
Temperature: 64.9 F (18.3 C)
Dew Point: 62.1 F (16.7 C)
Relative Humidity: 90%
Pressure (altimeter): 29.52 in. Hg (999 hPa)
Pressure tendency: 0.03 inches (1.0 hPa) lower than three hours ago
ob: KGRB 270253Z AUTO 17007KT 8SM CLR 18/17 A2952 RMK AO2 SLP993 T01830167 58010
cycle: 3

Station Type Date Time Source
KGRB TAF 2020/09/27 03:48 UTC NOAA

TAF
AMD KGRB 270245Z 2703/2724 19010KT P6SM BKN200 WS020/23045KT
FM270900 24010G18KT P6SM BKN250
FM271100 26008KT P6SM BKN150
FM271300 25009G17KT P6SM OVC150
FM271800 24010G18KT P6SM VCSH SCT050 OVC200

Example: see airport list